Time;durP1;ratioP1;P1;durP2;ratioP2;P2;SDS_P1;SDS_P2;PMS_P1;PMS_P2;Temp;Humidity;BMP_temperature;BMP_pressure;BME280_temperature;BME280_humidity;BME280_pressure;Samples;Min_cycle;Max_cycle;Signal;HPM_P1;HPM_P2
2021/12/30 00:09:39;;;;;;;1.60;1.43;;;12.20;99.90;;;;;;20999646;28;20243;-76
2021/12/30 00:19:41;;;;;;;1.50;1.40;;;12.20;99.90;;;;;;20999545;28;20215;-66
2021/12/30 00:29:43;;;;;;;1.43;1.33;;;12.30;99.90;;;;;;20998195;28;20235;-68
2021/12/30 00:39:44;;;;;;;1.40;1.30;;;12.40;99.90;;;;;;20997613;28;20211;-69
2021/12/30 00:49:46;;;;;;;2.37;1.20;;;12.50;99.90;;;;;;20997151;28;20257;-63
2021/12/30 00:59:48;;;;;;;2.30;1.20;;;12.60;99.90;;;;;;20996674;28;20540;-76
2021/12/30 01:09:50;;;;;;;1.83;1.20;;;12.70;99.90;;;;;;20995654;28;20641;-74
2021/12/30 01:19:52;;;;;;;1.27;1.17;;;12.70;99.90;;;;;;20995433;28;20610;-75
2021/12/30 01:29:53;;;;;;;3.40;1.40;;;12.60;99.90;;;;;;20995535;28;20601;-76
2021/12/30 01:39:55;;;;;;;1.87;1.10;;;12.60;99.90;;;;;;20995258;28;20207;-73
2021/12/30 01:49:57;;;;;;;1.83;1.20;;;12.60;99.90;;;;;;20994455;28;20613;-77
2021/12/30 02:00:00;;;;;;;1.40;1.30;;;12.60;99.90;;;;;;20994393;28;20254;-66
2021/12/30 02:10:04;;;;;;;0.93;0.93;;;12.60;99.90;;;;;;20993502;28;20641;-65
2021/12/30 02:20:10;;;;;;;1.33;1.20;;;12.50;99.90;;;;;;20993330;28;20253;-65
2021/12/30 02:30:12;;;;;;;2.63;1.27;;;12.50;99.90;;;;;;21001361;28;20238;-63
2021/12/30 02:40:14;;;;;;;2.17;1.27;;;12.50;99.90;;;;;;21006964;28;20214;-67
2021/12/30 02:50:16;;;;;;;4.60;1.30;;;12.50;99.90;;;;;;21006410;28;20632;-74
2021/12/30 03:00:17;;;;;;;3.40;1.23;;;12.50;99.90;;;;;;21006094;28;20207;-76
2021/12/30 03:10:25;;;;;;;2.50;1.17;;;12.60;99.90;;;;;;21004904;28;20242;-76
2021/12/30 03:20:32;;;;;;;4.67;1.67;;;12.50;99.90;;;;;;21004931;28;20276;-76
2021/12/30 03:30:33;;;;;;;6.60;2.30;;;12.50;99.90;;;;;;21003803;28;20640;-64
2021/12/30 03:40:36;;;;;;;3.97;1.33;;;12.50;99.90;;;;;;21002165;28;20203;-67
2021/12/30 03:50:44;;;;;;;4.87;1.50;;;12.50;99.90;;;;;;21002697;28;20242;-74
2021/12/30 04:00:46;;;;;;;5.07;1.70;;;12.40;99.90;;;;;;21001255;28;20305;-77
2021/12/30 04:10:48;;;;;;;4.53;1.57;;;12.40;99.90;;;;;;20999625;28;20282;-63
2021/12/30 04:20:50;;;;;;;7.13;1.80;;;12.50;99.90;;;;;;20999192;28;20214;-65
2021/12/30 04:30:51;;;;;;;7.23;1.50;;;12.50;99.90;;;;;;20998520;28;20239;-64
2021/12/30 04:40:53;;;;;;;6.00;1.60;;;12.50;99.90;;;;;;20997320;28;20347;-75
2021/12/30 04:50:55;;;;;;;5.27;1.60;;;12.60;99.90;;;;;;20996286;28;20239;-74
2021/12/30 05:00:57;;;;;;;5.33;1.60;;;12.60;99.90;;;;;;20996917;28;20261;-75
2021/12/30 05:11:00;;;;;;;6.40;1.60;;;12.70;99.90;;;;;;20995759;28;20302;-74
2021/12/30 05:21:04;;;;;;;4.77;1.77;;;12.70;99.90;;;;;;20995549;28;20203;-69
2021/12/30 05:31:07;;;;;;;8.90;1.80;;;12.70;99.90;;;;;;20995801;28;20725;-67
2021/12/30 05:41:09;;;;;;;8.60;1.97;;;12.70;99.90;;;;;;20994961;28;20269;-64
2021/12/30 05:51:11;;;;;;;5.53;2.20;;;12.70;99.90;;;;;;20994405;28;20602;-72
2021/12/30 06:01:13;;;;;;;5.97;2.03;;;12.80;99.90;;;;;;20998333;28;20203;-76
2021/12/30 06:11:15;;;;;;;11.67;2.20;;;12.80;99.90;;;;;;21009110;28;20242;-73
2021/12/30 06:21:16;;;;;;;14.97;3.00;;;12.80;99.90;;;;;;21006518;28;20663;-71
2021/12/30 06:31:18;;;;;;;7.80;2.10;;;12.80;99.90;;;;;;21008104;28;20632;-78
2021/12/30 06:41:20;;;;;;;8.30;2.30;;;12.80;99.90;;;;;;21007106;28;20224;-74
2021/12/30 06:51:23;;;;;;;6.47;2.10;;;12.80;99.90;;;;;;21006489;28;20246;-71
2021/12/30 07:01:29;;;;;;;5.43;2.00;;;12.80;99.90;;;;;;21006317;28;20206;-74
2021/12/30 07:11:31;;;;;;;7.70;3.30;;;12.80;99.90;;;;;;21004811;28;20214;-77
2021/12/30 07:21:33;;;;;;;3.27;2.00;;;12.80;99.90;;;;;;21005492;28;20220;-75
2021/12/30 07:31:34;;;;;;;5.27;2.20;;;12.80;99.90;;;;;;21009234;28;20572;-73
2021/12/30 07:41:36;;;;;;;2.57;1.83;;;12.90;99.90;;;;;;21004637;28;20202;-78
2021/12/30 07:51:38;;;;;;;1.37;1.27;;;13.00;99.90;;;;;;21001683;28;20240;-66
2021/12/30 08:01:40;;;;;;;1.10;1.00;;;13.10;99.90;;;;;;21001192;28;20756;-78
2021/12/30 08:11:42;;;;;;;1.13;1.00;;;13.20;99.90;;;;;;20999950;28;20239;-74
2021/12/30 08:21:43;;;;;;;0.93;0.90;;;13.30;99.90;;;;;;20999158;28;20208;-71
2021/12/30 08:31:45;;;;;;;0.93;0.87;;;13.40;99.90;;;;;;20998104;28;20656;-64
2021/12/30 08:41:47;;;;;;;1.30;1.10;;;13.70;99.90;;;;;;20997804;28;20211;-68
2021/12/30 08:51:49;;;;;;;1.00;0.90;;;13.70;99.90;;;;;;20996618;28;20716;-73
2021/12/30 09:01:51;;;;;;;0.80;0.80;;;13.80;99.90;;;;;;20996518;28;20257;-76
2021/12/30 09:11:53;;;;;;;1.10;1.00;;;13.90;99.90;;;;;;20995410;28;20304;-76
2021/12/30 09:21:56;;;;;;;0.80;0.80;;;13.80;99.90;;;;;;20995360;28;20252;-74
2021/12/30 09:31:58;;;;;;;0.90;0.90;;;14.10;99.90;;;;;;20995163;28;20235;-70
2021/12/30 09:42:00;;;;;;;1.03;0.90;;;14.20;99.90;;;;;;21009940;28;20202;-75
2021/12/30 09:52:03;;;;;;;0.90;0.90;;;14.20;99.90;;;;;;21012655;28;20662;-75
2021/12/30 10:02:04;;;;;;;5.60;0.93;;;14.40;99.90;;;;;;21012289;28;20265;-75
2021/12/30 10:12:07;;;;;;;1.87;1.10;;;14.40;99.90;;;;;;21010764;28;20249;-68
2021/12/30 10:22:15;;;;;;;1.07;1.00;;;14.40;99.90;;;;;;21010397;28;20207;-73
2021/12/30 10:32:22;;;;;;;1.27;1.10;;;14.60;99.90;;;;;;21009660;28;20227;-73
2021/12/30 10:42:25;;;;;;;1.10;1.00;;;14.60;99.90;;;;;;21007602;28;20207;-73
2021/12/30 10:52:30;;;;;;;1.10;1.00;;;14.70;99.90;;;;;;21005941;28;20330;-73
2021/12/30 11:02:32;;;;;;;0.90;0.90;;;14.80;99.90;;;;;;21006521;28;20261;-72
2021/12/30 11:12:41;;;;;;;1.40;1.30;;;14.80;99.90;;;;;;21003279;28;20330;-73
2021/12/30 11:22:43;;;;;;;1.50;1.30;;;14.90;99.90;;;;;;21004670;28;20257;-70
2021/12/30 11:32:49;;;;;;;2.10;1.57;;;14.90;99.90;;;;;;21004717;28;20242;-71
2021/12/30 11:42:53;;;;;;;1.77;1.30;;;15.20;99.90;;;;;;21003269;28;20716;-74
2021/12/30 11:53:11;;;;;;;2.00;1.80;;;15.20;99.90;;;;;;21002657;28;20234;-66
2021/12/30 12:03:35;;;;;;;1.67;1.43;;;15.40;99.90;;;;;;21000820;28;20270;-65
2021/12/30 12:13:47;;;;;;;1.40;1.23;;;15.70;99.90;;;;;;21000666;28;20759;-74
2021/12/30 12:23:49;;;;;;;1.20;1.10;;;15.50;99.90;;;;;;20999439;28;20547;-65
2021/12/30 12:33:58;;;;;;;1.77;1.60;;;15.50;99.90;;;;;;21003857;28;20231;-69
2021/12/30 12:44:02;;;;;;;3.03;2.10;;;15.40;99.90;;;;;;20998052;28;20210;-69
2021/12/30 12:54:06;;;;;;;1.67;1.00;;;15.40;99.90;;;;;;20997287;28;20283;-72
2021/12/30 13:04:10;;;;;;;1.83;1.30;;;15.50;99.90;;;;;;20996402;28;20688;-71
2021/12/30 13:14:14;;;;;;;1.37;1.00;;;15.50;99.90;;;;;;20995705;28;20239;-71
2021/12/30 13:24:27;;;;;;;1.20;1.10;;;15.60;99.90;;;;;;20995614;28;20210;-75
2021/12/30 13:34:29;;;;;;;1.67;1.20;;;15.50;99.90;;;;;;20995202;28;20235;-72
2021/12/30 13:44:41;;;;;;;1.20;1.10;;;15.60;99.90;;;;;;20994991;28;20226;-70
2021/12/30 13:55:03;;;;;;;1.27;1.10;;;15.60;99.90;;;;;;20994020;28;20233;-70
2021/12/30 14:05:14;;;;;;;1.60;1.10;;;15.70;99.90;;;;;;20993560;28;20308;-68
2021/12/30 14:15:20;;;;;;;1.37;1.27;;;15.70;99.90;;;;;;20993962;28;20237;-67
2021/12/30 14:25:33;;;;;;;1.30;1.20;;;15.70;99.90;;;;;;21000216;28;20242;-67
2021/12/30 14:35:35;;;;;;;1.43;1.27;;;15.70;99.90;;;;;;21009040;28;20231;-76
2021/12/30 14:45:43;;;;;;;1.20;1.10;;;15.60;99.90;;;;;;21006166;28;20444;-70
2021/12/30 14:55:45;;;;;;;1.30;1.20;;;15.80;99.90;;;;;;21006707;28;20247;-68
2021/12/30 15:05:47;;;;;;;2.40;1.07;;;15.50;99.90;;;;;;21005681;28;20579;-68
2021/12/30 15:15:49;;;;;;;1.27;1.10;;;15.40;99.90;;;;;;21005894;28;20227;-70
2021/12/30 15:25:51;;;;;;;1.63;1.40;;;15.20;99.90;;;;;;21003975;28;20210;-75
2021/12/30 15:35:53;;;;;;;1.77;1.50;;;15.10;99.90;;;;;;21001972;28;20237;-74
2021/12/30 15:45:54;;;;;;;2.93;2.00;;;15.00;99.90;;;;;;21002699;28;20211;-75
2021/12/30 15:55:56;;;;;;;1.93;1.73;;;15.10;99.90;;;;;;21001350;28;20643;-68
2021/12/30 16:06:00;;;;;;;1.90;1.43;;;15.10;99.90;;;;;;21000256;28;20643;-69
2021/12/30 16:16:05;;;;;;;2.10;1.40;;;15.00;99.90;;;;;;20998189;28;20297;-66
2021/12/30 16:26:07;;;;;;;2.33;1.37;;;15.00;99.90;;;;;;20999045;28;20249;-67
2021/12/30 16:36:08;;;;;;;1.93;1.20;;;15.00;99.90;;;;;;20997951;28;20320;-70
2021/12/30 16:46:10;;;;;;;1.57;1.10;;;15.00;99.90;;;;;;20997272;28;20210;-76
2021/12/30 16:56:12;;;;;;;1.27;1.17;;;15.00;99.90;;;;;;20995570;28;20292;-78
2021/12/30 17:06:14;;;;;;;1.67;1.10;;;15.00;99.90;;;;;;20996018;28;20261;-74
2021/12/30 17:16:16;;;;;;;2.07;1.00;;;15.00;99.90;;;;;;20996035;28;20277;-74
2021/12/30 17:26:18;;;;;;;4.67;1.80;;;14.90;99.90;;;;;;20995868;28;20202;-72
2021/12/30 17:36:20;;;;;;;1.80;1.20;;;14.80;99.90;;;;;;20995130;28;20297;-72
2021/12/30 17:46:22;;;;;;;1.63;0.90;;;14.70;99.90;;;;;;20995170;28;20207;-71
2021/12/30 17:56:25;;;;;;;2.43;1.40;;;14.70;99.90;;;;;;20996933;28;20250;-70
2021/12/30 18:06:27;;;;;;;1.57;1.47;;;14.70;99.90;;;;;;21010383;28;20726;-70
2021/12/30 18:16:30;;;;;;;1.40;1.20;;;14.70;99.90;;;;;;21009351;28;20654;-71
2021/12/30 18:26:34;;;;;;;2.17;1.30;;;14.60;99.90;;;;;;21008294;28;20723;-71
2021/12/30 18:36:35;;;;;;;2.63;1.50;;;14.60;99.90;;;;;;21007008;28;20633;-73
2021/12/30 18:46:37;;;;;;;4.20;1.23;;;14.60;99.90;;;;;;21005275;28;20211;-72
2021/12/30 18:56:39;;;;;;;2.47;1.47;;;14.60;99.90;;;;;;21006110;28;20235;-71
2021/12/30 19:06:41;;;;;;;1.57;1.30;;;14.60;99.90;;;;;;21004454;28;20242;-71
2021/12/30 19:16:43;;;;;;;3.57;1.50;;;14.60;99.90;;;;;;21003205;28;20626;-71
2021/12/30 19:26:45;;;;;;;1.60;1.30;;;14.60;99.90;;;;;;21003628;28;20256;-73
2021/12/30 19:36:47;;;;;;;2.00;1.20;;;14.60;99.90;;;;;;21002870;28;20238;-70
2021/12/30 19:46:50;;;;;;;1.80;1.53;;;14.60;99.90;;;;;;20930448;28;20215;-71
2021/12/30 19:56:52;;;;;;;2.07;1.40;;;14.60;99.90;;;;;;20916755;28;20231;-73
2021/12/30 20:06:54;;;;;;;1.40;1.20;;;14.60;99.90;;;;;;20915432;28;20236;-67
2021/12/30 20:16:56;;;;;;;2.10;1.20;;;14.50;99.90;;;;;;20915113;28;20663;-71
2021/12/30 20:27:00;;;;;;;2.33;1.20;;;14.50;99.90;;;;;;20914511;28;20208;-71
2021/12/30 20:37:02;;;;;;;1.50;1.27;;;14.50;99.90;;;;;;20913218;28;20314;-72
2021/12/30 20:47:04;;;;;;;2.63;1.70;;;14.50;99.90;;;;;;20912195;28;20217;-69
2021/12/30 20:57:07;;;;;;;2.50;1.40;;;14.50;99.90;;;;;;20912482;28;20246;-70
2021/12/30 21:07:09;;;;;;;1.73;1.50;;;14.50;99.90;;;;;;20911248;28;20283;-69
2021/12/30 21:17:11;;;;;;;3.63;1.80;;;14.50;99.90;;;;;;20909639;28;20232;-71
2021/12/30 21:27:13;;;;;;;2.17;1.67;;;14.40;99.90;;;;;;20910528;28;20206;-71
2021/12/30 21:37:15;;;;;;;2.67;1.60;;;14.40;99.90;;;;;;20959344;28;20236;-65
2021/12/30 21:47:17;;;;;;;1.83;1.67;;;14.40;99.90;;;;;;21076193;28;20209;-70
2021/12/30 21:57:19;;;;;;;3.53;1.87;;;14.40;99.90;;;;;;21002866;28;20633;-68
2021/12/30 22:07:21;;;;;;;3.07;1.90;;;14.40;99.90;;;;;;20990793;28;20231;-71
2021/12/30 22:17:22;;;;;;;3.67;1.90;;;14.40;99.90;;;;;;20991124;28;20235;-70
2021/12/30 22:27:24;;;;;;;3.30;1.90;;;14.40;99.90;;;;;;20973137;28;20207;-64
2021/12/30 22:37:26;;;;;;;3.73;1.77;;;14.40;99.90;;;;;;20909812;28;20234;-66
2021/12/30 22:47:28;;;;;;;3.47;1.90;;;14.40;99.90;;;;;;20923836;28;20206;-70
2021/12/30 22:57:30;;;;;;;2.47;1.77;;;14.40;99.90;;;;;;21006494;28;20280;-71
2021/12/30 23:07:32;;;;;;;2.97;1.50;;;14.50;99.90;;;;;;21005333;28;20633;-72
2021/12/30 23:17:34;;;;;;;4.00;1.87;;;14.50;99.90;;;;;;21004787;28;20260;-70
2021/12/30 23:27:36;;;;;;;1.97;1.77;;;14.40;99.90;;;;;;21003525;28;20253;-69
2021/12/30 23:37:39;;;;;;;3.40;1.93;;;14.40;99.90;;;;;;21003451;28;20238;-72
2021/12/30 23:47:41;;;;;;;2.57;1.97;;;14.40;99.90;;;;;;21002606;28;20621;-72
2021/12/30 23:57:43;;;;;;;2.87;1.87;;;14.40;99.90;;;;;;21002409;28;20231;-74
